sensor_id;sensor_type;location;lat;lon;timestamp;temperature;humidity
42421;DHT22;28063;48.140;11.588;2023-06-14T00:00:45;15.50;55.70
42421;DHT22;28063;48.140;11.588;2023-06-14T00:03:20;15.50;55.80
42421;DHT22;28063;48.140;11.588;2023-06-14T00:05:47;15.50;55.80
42421;DHT22;28063;48.140;11.588;2023-06-14T00:08:14;15.40;55.90
42421;DHT22;28063;48.140;11.588;2023-06-14T00:10:41;15.40;56.00
42421;DHT22;28063;48.140;11.588;2023-06-14T00:13:13;15.40;56.00
42421;DHT22;28063;48.140;11.588;2023-06-14T00:15:48;15.30;56.00
42421;DHT22;28063;48.140;11.588;2023-06-14T00:18:14;15.20;56.30
42421;DHT22;28063;48.140;11.588;2023-06-14T00:20:43;15.20;56.90
42421;DHT22;28063;48.140;11.588;2023-06-14T00:23:18;15.20;57.00
42421;DHT22;28063;48.140;11.588;2023-06-14T00:25:47;15.10;56.90
42421;DHT22;28063;48.140;11.588;2023-06-14T00:28:13;15.10;56.80
42421;DHT22;28063;48.140;11.588;2023-06-14T00:30:44;15.00;56.90
42421;DHT22;28063;48.140;11.588;2023-06-14T00:33:16;14.90;57.30
42421;DHT22;28063;48.140;11.588;2023-06-14T00:35:45;15.00;57.90
42421;DHT22;28063;48.140;11.588;2023-06-14T00:38:10;14.90;58.10
42421;DHT22;28063;48.140;11.588;2023-06-14T00:40:36;14.80;58.30
42421;DHT22;28063;48.140;11.588;2023-06-14T00:43:05;14.80;58.60
42421;DHT22;28063;48.140;11.588;2023-06-14T00:45:41;14.70;58.80
42421;DHT22;28063;48.140;11.588;2023-06-14T00:48:10;14.70;59.20
42421;DHT22;28063;48.140;11.588;2023-06-14T00:50:39;14.60;59.20
42421;DHT22;28063;48.140;11.588;2023-06-14T00:53:09;14.60;59.70
42421;DHT22;28063;48.140;11.588;2023-06-14T00:55:41;14.50;60.40
42421;DHT22;28063;48.140;11.588;2023-06-14T00:58:07;14.50;60.10
42421;DHT22;28063;48.140;11.588;2023-06-14T01:00:40;14.50;60.40
42421;DHT22;28063;48.140;11.588;2023-06-14T01:03:08;14.50;60.50
42421;DHT22;28063;48.140;11.588;2023-06-14T01:06:02;14.40;60.60
42421;DHT22;28063;48.140;11.588;2023-06-14T01:11:28;14.40;61.10
42421;DHT22;28063;48.140;11.588;2023-06-14T01:14:04;14.30;61.30
42421;DHT22;28063;48.140;11.588;2023-06-14T01:16:38;14.30;61.90
42421;DHT22;28063;48.140;11.588;2023-06-14T01:19:11;14.30;62.40
42421;DHT22;28063;48.140;11.588;2023-06-14T01:21:39;14.30;62.90
42421;DHT22;28063;48.140;11.588;2023-06-14T01:24:10;14.20;63.10
42421;DHT22;28063;48.140;11.588;2023-06-14T01:26:44;14.20;63.60
42421;DHT22;28063;48.140;11.588;2023-06-14T01:29:13;14.20;64.10
42421;DHT22;28063;48.140;11.588;2023-06-14T01:31:46;14.20;64.30
42421;DHT22;28063;48.140;11.588;2023-06-14T01:34:15;14.10;64.70
42421;DHT22;28063;48.140;11.588;2023-06-14T01:36:45;14.10;64.90
42421;DHT22;28063;48.140;11.588;2023-06-14T01:39:17;14.10;65.10
42421;DHT22;28063;48.140;11.588;2023-06-14T01:41:47;14.10;65.20
42421;DHT22;28063;48.140;11.588;2023-06-14T01:44:14;14.00;65.60
42421;DHT22;28063;48.140;11.588;2023-06-14T01:46:45;14.00;65.70
42421;DHT22;28063;48.140;11.588;2023-06-14T01:49:13;13.90;65.70
42421;DHT22;28063;48.140;11.588;2023-06-14T01:51:39;13.90;65.90
42421;DHT22;28063;48.140;11.588;2023-06-14T01:54:05;13.90;66.30
42421;DHT22;28063;48.140;11.588;2023-06-14T01:56:31;13.80;66.30
42421;DHT22;28063;48.140;11.588;2023-06-14T01:59:04;13.80;66.40
42421;DHT22;28063;48.140;11.588;2023-06-14T02:01:33;13.80;66.70
42421;DHT22;28063;48.140;11.588;2023-06-14T02:04:02;13.80;66.90
42421;DHT22;28063;48.140;11.588;2023-06-14T02:06:28;13.70;66.80
42421;DHT22;28063;48.140;11.588;2023-06-14T02:08:54;13.70;66.90
42421;DHT22;28063;48.140;11.588;2023-06-14T02:11:25;13.70;67.20
42421;DHT22;28063;48.140;11.588;2023-06-14T02:13:55;13.70;67.30
42421;DHT22;28063;48.140;11.588;2023-06-14T02:16:27;13.70;67.40
42421;DHT22;28063;48.140;11.588;2023-06-14T02:19:00;13.70;67.40
42421;DHT22;28063;48.140;11.588;2023-06-14T02:21:37;13.70;67.60
42421;DHT22;28063;48.140;11.588;2023-06-14T02:24:06;13.70;67.00
42421;DHT22;28063;48.140;11.588;2023-06-14T02:26:35;13.70;66.60
42421;DHT22;28063;48.140;11.588;2023-06-14T02:29:03;13.70;66.60
42421;DHT22;28063;48.140;11.588;2023-06-14T02:31:31;13.70;66.70
42421;DHT22;28063;48.140;11.588;2023-06-14T02:34:07;13.60;66.50
42421;DHT22;28063;48.140;11.588;2023-06-14T02:36:39;13.60;66.30
42421;DHT22;28063;48.140;11.588;2023-06-14T02:39:10;13.60;66.20
42421;DHT22;28063;48.140;11.588;2023-06-14T02:41:56;13.50;66.40
42421;DHT22;28063;48.140;11.588;2023-06-14T02:44:27;13.40;66.30
42421;DHT22;28063;48.140;11.588;2023-06-14T02:46:56;13.40;66.50
42421;DHT22;28063;48.140;11.588;2023-06-14T02:49:31;13.30;66.60
42421;DHT22;28063;48.140;11.588;2023-06-14T02:51:57;13.30;66.70
42421;DHT22;28063;48.140;11.588;2023-06-14T02:54:23;13.30;66.80
42421;DHT22;28063;48.140;11.588;2023-06-14T02:56:57;13.30;67.20
42421;DHT22;28063;48.140;11.588;2023-06-14T03:02:25;13.30;67.20
42421;DHT22;28063;48.140;11.588;2023-06-14T03:04:51;13.20;67.70
42421;DHT22;28063;48.140;11.588;2023-06-14T03:07:20;13.20;67.90
42421;DHT22;28063;48.140;11.588;2023-06-14T03:09:48;13.10;67.70
42421;DHT22;28063;48.140;11.588;2023-06-14T03:12:16;13.10;67.70
42421;DHT22;28063;48.140;11.588;2023-06-14T03:14:42;13.00;68.90
42421;DHT22;28063;48.140;11.588;2023-06-14T03:17:11;13.00;70.00
42421;DHT22;28063;48.140;11.588;2023-06-14T03:19:39;13.00;71.00
42421;DHT22;28063;48.140;11.588;2023-06-14T03:22:09;12.90;71.80
42421;DHT22;28063;48.140;11.588;2023-06-14T03:24:37;12.80;72.30
42421;DHT22;28063;48.140;11.588;2023-06-14T03:27:04;12.80;72.70
42421;DHT22;28063;48.140;11.588;2023-06-14T03:29:30;12.70;72.90
42421;DHT22;28063;48.140;11.588;2023-06-14T03:32:01;12.70;73.30
42421;DHT22;28063;48.140;11.588;2023-06-14T03:34:27;12.70;73.80
42421;DHT22;28063;48.140;11.588;2023-06-14T03:37:05;12.70;74.10
42421;DHT22;28063;48.140;11.588;2023-06-14T03:39:31;12.70;74.20
42421;DHT22;28063;48.140;11.588;2023-06-14T03:41:57;12.70;74.10
42421;DHT22;28063;48.140;11.588;2023-06-14T03:44:23;12.70;74.30
42421;DHT22;28063;48.140;11.588;2023-06-14T03:46:51;12.80;74.60
42421;DHT22;28063;48.140;11.588;2023-06-14T03:49:20;12.80;74.70
42421;DHT22;28063;48.140;11.588;2023-06-14T03:51:52;12.80;74.30
42421;DHT22;28063;48.140;11.588;2023-06-14T03:54:20;12.80;73.50
42421;DHT22;28063;48.140;11.588;2023-06-14T03:56:54;12.90;73.90
42421;DHT22;28063;48.140;11.588;2023-06-14T03:59:22;12.80;73.20
42421;DHT22;28063;48.140;11.588;2023-06-14T04:01:51;12.80;73.90
42421;DHT22;28063;48.140;11.588;2023-06-14T04:04:19;12.70;74.50
42421;DHT22;28063;48.140;11.588;2023-06-14T04:06:49;12.70;75.30
42421;DHT22;28063;48.140;11.588;2023-06-14T04:09:35;12.70;75.70
42421;DHT22;28063;48.140;11.588;2023-06-14T04:12:01;12.70;76.10
42421;DHT22;28063;48.140;11.588;2023-06-14T04:14:27;12.70;76.20
42421;DHT22;28063;48.140;11.588;2023-06-14T04:16:58;12.70;76.00
42421;DHT22;28063;48.140;11.588;2023-06-14T04:19:24;12.70;75.20
42421;DHT22;28063;48.140;11.588;2023-06-14T04:21:55;12.70;74.50
42421;DHT22;28063;48.140;11.588;2023-06-14T04:24:41;12.80;73.80
42421;DHT22;28063;48.140;11.588;2023-06-14T04:27:10;12.80;73.40
42421;DHT22;28063;48.140;11.588;2023-06-14T04:29:36;12.80;72.50
42421;DHT22;28063;48.140;11.588;2023-06-14T04:32:05;12.90;72.00
42421;DHT22;28063;48.140;11.588;2023-06-14T04:34:32;13.00;71.90
42421;DHT22;28063;48.140;11.588;2023-06-14T04:37:02;13.00;71.50
42421;DHT22;28063;48.140;11.588;2023-06-14T04:40:05;13.10;71.20
42421;DHT22;28063;48.140;11.588;2023-06-14T04:43:02;13.20;70.80
42421;DHT22;28063;48.140;11.588;2023-06-14T04:45:32;13.30;70.50
42421;DHT22;28063;48.140;11.588;2023-06-14T04:48:06;13.40;70.80
42421;DHT22;28063;48.140;11.588;2023-06-14T04:50:34;13.50;70.40
42421;DHT22;28063;48.140;11.588;2023-06-14T04:53:05;13.60;70.10
42421;DHT22;28063;48.140;11.588;2023-06-14T04:55:37;13.70;69.50
42421;DHT22;28063;48.140;11.588;2023-06-14T04:58:03;13.90;68.90
42421;DHT22;28063;48.140;11.588;2023-06-14T05:00:32;14.00;68.40
42421;DHT22;28063;48.140;11.588;2023-06-14T05:02:58;14.10;67.90
42421;DHT22;28063;48.140;11.588;2023-06-14T05:05:24;14.30;67.40
42421;DHT22;28063;48.140;11.588;2023-06-14T05:07:55;14.80;67.20
42421;DHT22;28063;48.140;11.588;2023-06-14T05:10:26;16.50;65.40
42421;DHT22;28063;48.140;11.588;2023-06-14T05:12:52;18.90;60.70
42421;DHT22;28063;48.140;11.588;2023-06-14T05:15:22;21.20;55.10
42421;DHT22;28063;48.140;11.588;2023-06-14T05:17:50;23.10;50.60
42421;DHT22;28063;48.140;11.588;2023-06-14T05:20:23;24.60;47.40
42421;DHT22;28063;48.140;11.588;2023-06-14T05:23:09;25.60;44.50
42421;DHT22;28063;48.140;11.588;2023-06-14T05:25:43;26.20;42.50
42421;DHT22;28063;48.140;11.588;2023-06-14T05:28:13;26.60;42.30
42421;DHT22;28063;48.140;11.588;2023-06-14T05:30:39;27.30;40.90
42421;DHT22;28063;48.140;11.588;2023-06-14T05:33:05;27.80;40.00
42421;DHT22;28063;48.140;11.588;2023-06-14T05:35:31;28.40;39.60
42421;DHT22;28063;48.140;11.588;2023-06-14T05:37:57;28.80;38.50
42421;DHT22;28063;48.140;11.588;2023-06-14T05:40:23;28.80;38.20
42421;DHT22;28063;48.140;11.588;2023-06-14T05:42:49;28.60;37.60
42421;DHT22;28063;48.140;11.588;2023-06-14T05:45:18;28.00;37.60
42421;DHT22;28063;48.140;11.588;2023-06-14T05:50:13;28.50;37.70
42421;DHT22;28063;48.140;11.588;2023-06-14T05:52:47;29.20;38.00
42421;DHT22;28063;48.140;11.588;2023-06-14T05:55:16;29.70;37.30
42421;DHT22;28063;48.140;11.588;2023-06-14T05:57:45;29.30;36.70
42421;DHT22;28063;48.140;11.588;2023-06-14T06:00:14;28.80;37.60
42421;DHT22;28063;48.140;11.588;2023-06-14T06:02:47;29.30;37.30
42421;DHT22;28063;48.140;11.588;2023-06-14T06:07:51;30.10;36.30
42421;DHT22;28063;48.140;11.588;2023-06-14T06:10:20;29.50;35.80
42421;DHT22;28063;48.140;11.588;2023-06-14T06:12:51;28.80;37.70
42421;DHT22;28063;48.140;11.588;2023-06-14T06:15:20;29.30;37.90
42421;DHT22;28063;48.140;11.588;2023-06-14T06:17:46;29.80;37.30
42421;DHT22;28063;48.140;11.588;2023-06-14T06:20:14;30.30;36.50
42421;DHT22;28063;48.140;11.588;2023-06-14T06:22:40;30.90;36.10
42421;DHT22;28063;48.140;11.588;2023-06-14T06:25:09;31.20;35.70
42421;DHT22;28063;48.140;11.588;2023-06-14T06:27:47;31.30;35.20
42421;DHT22;28063;48.140;11.588;2023-06-14T06:30:19;31.20;35.60
42421;DHT22;28063;48.140;11.588;2023-06-14T06:32:45;31.30;35.70
42421;DHT22;28063;48.140;11.588;2023-06-14T06:35:16;31.50;35.30
42421;DHT22;28063;48.140;11.588;2023-06-14T06:37:46;31.50;35.50
42421;DHT22;28063;48.140;11.588;2023-06-14T06:40:21;31.30;34.80
42421;DHT22;28063;48.140;11.588;2023-06-14T06:42:55;30.70;35.50
42421;DHT22;28063;48.140;11.588;2023-06-14T06:45:23;30.50;36.00
42421;DHT22;28063;48.140;11.588;2023-06-14T06:47:53;30.60;36.30
42421;DHT22;28063;48.140;11.588;2023-06-14T06:50:24;30.70;35.60
42421;DHT22;28063;48.140;11.588;2023-06-14T06:52:52;29.90;36.00
42421;DHT22;28063;48.140;11.588;2023-06-14T06:55:24;29.60;36.70
42421;DHT22;28063;48.140;11.588;2023-06-14T06:57:55;29.60;36.80
42421;DHT22;28063;48.140;11.588;2023-06-14T07:00:21;29.40;37.10
42421;DHT22;28063;48.140;11.588;2023-06-14T07:02:49;29.90;36.50
42421;DHT22;28063;48.140;11.588;2023-06-14T07:05:16;29.50;36.50
42421;DHT22;28063;48.140;11.588;2023-06-14T07:07:42;29.60;36.80
42421;DHT22;28063;48.140;11.588;2023-06-14T07:10:25;29.50;36.80
42421;DHT22;28063;48.140;11.588;2023-06-14T07:12:54;30.00;36.70
42421;DHT22;28063;48.140;11.588;2023-06-14T07:15:20;30.40;36.40
42421;DHT22;28063;48.140;11.588;2023-06-14T07:17:48;30.30;36.00
42421;DHT22;28063;48.140;11.588;2023-06-14T07:20:19;29.80;36.40
42421;DHT22;28063;48.140;11.588;2023-06-14T07:22:50;28.00;36.80
42421;DHT22;28063;48.140;11.588;2023-06-14T07:25:20;25.70;39.40
42421;DHT22;28063;48.140;11.588;2023-06-14T07:30:27;22.70;43.50
42421;DHT22;28063;48.140;11.588;2023-06-14T07:33:02;21.70;46.20
42421;DHT22;28063;48.140;11.588;2023-06-14T07:35:51;21.00;47.50
42421;DHT22;28063;48.140;11.588;2023-06-14T07:38:18;20.60;48.80
42421;DHT22;28063;48.140;11.588;2023-06-14T07:40:44;20.30;49.30
42421;DHT22;28063;48.140;11.588;2023-06-14T07:43:22;20.00;50.10
42421;DHT22;28063;48.140;11.588;2023-06-14T07:45:50;19.80;50.90
42421;DHT22;28063;48.140;11.588;2023-06-14T07:48:28;19.60;51.60
42421;DHT22;28063;48.140;11.588;2023-06-14T07:51:06;19.50;51.90
42421;DHT22;28063;48.140;11.588;2023-06-14T07:53:42;19.50;52.10
42421;DHT22;28063;48.140;11.588;2023-06-14T07:56:15;19.40;51.70
42421;DHT22;28063;48.140;11.588;2023-06-14T07:58:43;19.50;51.40
42421;DHT22;28063;48.140;11.588;2023-06-14T08:01:14;19.50;50.60
42421;DHT22;28063;48.140;11.588;2023-06-14T08:03:40;19.60;50.60
42421;DHT22;28063;48.140;11.588;2023-06-14T08:06:06;19.80;50.30
42421;DHT22;28063;48.140;11.588;2023-06-14T08:08:38;19.90;50.00
42421;DHT22;28063;48.140;11.588;2023-06-14T08:11:03;20.10;49.40
42421;DHT22;28063;48.140;11.588;2023-06-14T08:13:32;20.20;49.10
42421;DHT22;28063;48.140;11.588;2023-06-14T08:16:00;20.30;49.80
42421;DHT22;28063;48.140;11.588;2023-06-14T08:18:32;20.40;49.50
42421;DHT22;28063;48.140;11.588;2023-06-14T08:20:58;20.40;48.50
42421;DHT22;28063;48.140;11.588;2023-06-14T08:23:23;20.40;47.20
42421;DHT22;28063;48.140;11.588;2023-06-14T08:25:49;20.40;47.90
42421;DHT22;28063;48.140;11.588;2023-06-14T08:28:21;20.40;47.40
42421;DHT22;28063;48.140;11.588;2023-06-14T08:30:52;20.60;47.60
42421;DHT22;28063;48.140;11.588;2023-06-14T08:33:26;20.70;47.20
42421;DHT22;28063;48.140;11.588;2023-06-14T08:35:52;20.80;46.90
42421;DHT22;28063;48.140;11.588;2023-06-14T08:38:25;20.80;46.70
42421;DHT22;28063;48.140;11.588;2023-06-14T08:40:55;20.90;46.50
42421;DHT22;28063;48.140;11.588;2023-06-14T08:43:27;21.00;46.20
42421;DHT22;28063;48.140;11.588;2023-06-14T08:46:13;21.00;45.70
42421;DHT22;28063;48.140;11.588;2023-06-14T08:48:52;21.10;45.30
42421;DHT22;28063;48.140;11.588;2023-06-14T08:53:55;21.50;44.50
42421;DHT22;28063;48.140;11.588;2023-06-14T08:56:32;21.50;43.30
42421;DHT22;28063;48.140;11.588;2023-06-14T08:59:05;21.50;43.30
42421;DHT22;28063;48.140;11.588;2023-06-14T09:01:40;21.50;43.70
42421;DHT22;28063;48.140;11.588;2023-06-14T09:04:14;21.60;43.80
42421;DHT22;28063;48.140;11.588;2023-06-14T09:06:40;21.80;43.80
42421;DHT22;28063;48.140;11.588;2023-06-14T09:09:16;21.80;43.40
42421;DHT22;28063;48.140;11.588;2023-06-14T09:11:43;21.90;43.80
42421;DHT22;28063;48.140;11.588;2023-06-14T09:14:09;21.90;43.60
42421;DHT22;28063;48.140;11.588;2023-06-14T09:19:05;22.20;42.50
42421;DHT22;28063;48.140;11.588;2023-06-14T09:21:38;22.30;43.40
42421;DHT22;28063;48.140;11.588;2023-06-14T09:24:06;22.40;43.30
42421;DHT22;28063;48.140;11.588;2023-06-14T09:26:53;22.50;43.20
42421;DHT22;28063;48.140;11.588;2023-06-14T09:31:58;22.60;41.80
42421;DHT22;28063;48.140;11.588;2023-06-14T09:39:22;22.40;43.80
42421;DHT22;28063;48.140;11.588;2023-06-14T09:41:48;22.30;44.10
42421;DHT22;28063;48.140;11.588;2023-06-14T09:44:14;22.40;44.10
42421;DHT22;28063;48.140;11.588;2023-06-14T09:46:43;22.50;43.30
42421;DHT22;28063;48.140;11.588;2023-06-14T09:49:12;22.80;42.90
42421;DHT22;28063;48.140;11.588;2023-06-14T09:54:22;23.10;41.80
42421;DHT22;28063;48.140;11.588;2023-06-14T09:56:51;23.30;41.70
42421;DHT22;28063;48.140;11.588;2023-06-14T09:59:21;23.50;41.80
42421;DHT22;28063;48.140;11.588;2023-06-14T10:01:56;23.70;42.10
42421;DHT22;28063;48.140;11.588;2023-06-14T10:04:30;24.10;41.90
42421;DHT22;28063;48.140;11.588;2023-06-14T10:06:59;24.10;40.90
42421;DHT22;28063;48.140;11.588;2023-06-14T10:09:31;24.00;41.30
42421;DHT22;28063;48.140;11.588;2023-06-14T10:12:12;24.10;42.00
42421;DHT22;28063;48.140;11.588;2023-06-14T10:14:44;24.50;41.80
42421;DHT22;28063;48.140;11.588;2023-06-14T10:23:11;24.80;39.40
42421;DHT22;28063;48.140;11.588;2023-06-14T10:25:45;24.40;40.80
42421;DHT22;28063;48.140;11.588;2023-06-14T10:28:22;23.60;42.50
42421;DHT22;28063;48.140;11.588;2023-06-14T10:36:31;22.90;43.50
42421;DHT22;28063;48.140;11.588;2023-06-14T10:39:01;23.10;44.20
42421;DHT22;28063;48.140;11.588;2023-06-14T10:41:29;23.30;43.90
42421;DHT22;28063;48.140;11.588;2023-06-14T10:54:13;23.70;43.20
42421;DHT22;28063;48.140;11.588;2023-06-14T10:59:14;23.80;43.00
42421;DHT22;28063;48.140;11.588;2023-06-14T11:10:40;22.90;45.10
42421;DHT22;28063;48.140;11.588;2023-06-14T11:13:07;23.30;44.40
42421;DHT22;28063;48.140;11.588;2023-06-14T11:15:44;23.80;43.90
42421;DHT22;28063;48.140;11.588;2023-06-14T11:18:18;24.00;43.00
42421;DHT22;28063;48.140;11.588;2023-06-14T11:20:50;24.10;41.30
42421;DHT22;28063;48.140;11.588;2023-06-14T11:25:58;24.20;39.30
42421;DHT22;28063;48.140;11.588;2023-06-14T11:28:39;24.10;40.80
42421;DHT22;28063;48.140;11.588;2023-06-14T11:31:06;24.50;41.70
42421;DHT22;28063;48.140;11.588;2023-06-14T11:33:32;24.60;40.30
42421;DHT22;28063;48.140;11.588;2023-06-14T11:36:06;24.80;40.30
42421;DHT22;28063;48.140;11.588;2023-06-14T11:38:37;25.10;39.50
42421;DHT22;28063;48.140;11.588;2023-06-14T11:41:07;25.30;39.30
42421;DHT22;28063;48.140;11.588;2023-06-14T11:43:33;25.50;38.90
42421;DHT22;28063;48.140;11.588;2023-06-14T11:46:12;25.50;37.80
42421;DHT22;28063;48.140;11.588;2023-06-14T11:48:43;25.20;38.10
42421;DHT22;28063;48.140;11.588;2023-06-14T11:51:14;25.20;38.50
42421;DHT22;28063;48.140;11.588;2023-06-14T11:53:56;25.20;37.70
42421;DHT22;28063;48.140;11.588;2023-06-14T11:56:24;24.60;38.70
42421;DHT22;28063;48.140;11.588;2023-06-14T11:58:56;24.00;39.50
42421;DHT22;28063;48.140;11.588;2023-06-14T12:03:54;23.90;39.10
42421;DHT22;28063;48.140;11.588;2023-06-14T12:06:32;24.20;39.00
42421;DHT22;28063;48.140;11.588;2023-06-14T12:14:19;24.70;38.00
42421;DHT22;28063;48.140;11.588;2023-06-14T12:17:11;24.90;38.30
42421;DHT22;28063;48.140;11.588;2023-06-14T12:19:46;25.00;37.80
42421;DHT22;28063;48.140;11.588;2023-06-14T12:22:31;25.20;38.20
42421;DHT22;28063;48.140;11.588;2023-06-14T12:25:02;25.70;38.10
42421;DHT22;28063;48.140;11.588;2023-06-14T12:27:35;25.80;37.10
42421;DHT22;28063;48.140;11.588;2023-06-14T12:30:02;25.80;36.90
42421;DHT22;28063;48.140;11.588;2023-06-14T12:32:41;25.80;37.20
42421;DHT22;28063;48.140;11.588;2023-06-14T12:37:40;25.20;37.00
42421;DHT22;28063;48.140;11.588;2023-06-14T12:40:13;25.30;37.90
42421;DHT22;28063;48.140;11.588;2023-06-14T12:42:42;25.30;38.30
42421;DHT22;28063;48.140;11.588;2023-06-14T12:45:11;25.70;38.20
42421;DHT22;28063;48.140;11.588;2023-06-14T12:47:39;25.90;38.00
42421;DHT22;28063;48.140;11.588;2023-06-14T12:50:12;26.00;37.70
42421;DHT22;28063;48.140;11.588;2023-06-14T12:52:40;25.80;37.70
42421;DHT22;28063;48.140;11.588;2023-06-14T12:55:20;25.80;38.20
42421;DHT22;28063;48.140;11.588;2023-06-14T13:02:51;25.70;36.60
42421;DHT22;28063;48.140;11.588;2023-06-14T13:05:20;25.40;37.90
42421;DHT22;28063;48.140;11.588;2023-06-14T13:07:48;25.30;37.90
42421;DHT22;28063;48.140;11.588;2023-06-14T13:10:14;25.40;37.90
42421;DHT22;28063;48.140;11.588;2023-06-14T13:12:40;25.60;37.60
42421;DHT22;28063;48.140;11.588;2023-06-14T13:15:07;25.70;37.50
42421;DHT22;28063;48.140;11.588;2023-06-14T13:17:36;25.90;37.20
42421;DHT22;28063;48.140;11.588;2023-06-14T13:20:08;26.00;36.90
42421;DHT22;28063;48.140;11.588;2023-06-14T13:22:35;26.20;36.40
42421;DHT22;28063;48.140;11.588;2023-06-14T13:25:04;26.40;36.40
42421;DHT22;28063;48.140;11.588;2023-06-14T13:27:33;26.50;35.70
42421;DHT22;28063;48.140;11.588;2023-06-14T13:30:02;26.40;35.80
42421;DHT22;28063;48.140;11.588;2023-06-14T13:32:36;26.40;36.10
42421;DHT22;28063;48.140;11.588;2023-06-14T13:35:08;26.60;35.90
42421;DHT22;28063;48.140;11.588;2023-06-14T13:37:39;26.50;35.50
42421;DHT22;28063;48.140;11.588;2023-06-14T13:40:08;26.20;35.70
42421;DHT22;28063;48.140;11.588;2023-06-14T13:42:36;26.40;36.00
42421;DHT22;28063;48.140;11.588;2023-06-14T13:45:10;26.30;35.30
42421;DHT22;28063;48.140;11.588;2023-06-14T13:47:36;26.20;35.60
42421;DHT22;28063;48.140;11.588;2023-06-14T13:52:32;26.20;34.70
42421;DHT22;28063;48.140;11.588;2023-06-14T13:54:58;26.50;35.20
42421;DHT22;28063;48.140;11.588;2023-06-14T13:57:26;26.90;34.60
42421;DHT22;28063;48.140;11.588;2023-06-14T13:59:54;27.20;34.40
42421;DHT22;28063;48.140;11.588;2023-06-14T14:02:37;27.60;34.00
42421;DHT22;28063;48.140;11.588;2023-06-14T14:05:03;27.90;33.60
42421;DHT22;28063;48.140;11.588;2023-06-14T14:07:30;27.90;33.30
42421;DHT22;28063;48.140;11.588;2023-06-14T14:09:56;27.40;33.50
42421;DHT22;28063;48.140;11.588;2023-06-14T14:12:23;27.00;34.00
42421;DHT22;28063;48.140;11.588;2023-06-14T14:14:55;26.70;33.90
42421;DHT22;28063;48.140;11.588;2023-06-14T14:17:27;26.50;34.40
42421;DHT22;28063;48.140;11.588;2023-06-14T14:19:53;26.20;34.70
42421;DHT22;28063;48.140;11.588;2023-06-14T14:22:19;26.10;35.30
42421;DHT22;28063;48.140;11.588;2023-06-14T14:24:55;26.10;35.40
42421;DHT22;28063;48.140;11.588;2023-06-14T14:27:21;26.10;35.70
42421;DHT22;28063;48.140;11.588;2023-06-14T14:29:47;26.30;35.80
42421;DHT22;28063;48.140;11.588;2023-06-14T14:32:13;26.60;34.90
42421;DHT22;28063;48.140;11.588;2023-06-14T14:34:40;26.60;34.80
42421;DHT22;28063;48.140;11.588;2023-06-14T14:37:06;26.60;34.80
42421;DHT22;28063;48.140;11.588;2023-06-14T14:39:34;26.50;34.20
42421;DHT22;28063;48.140;11.588;2023-06-14T14:42:00;26.30;34.70
42421;DHT22;28063;48.140;11.588;2023-06-14T14:44:32;26.30;35.00
42421;DHT22;28063;48.140;11.588;2023-06-14T14:46:58;26.10;35.60
42421;DHT22;28063;48.140;11.588;2023-06-14T14:49:24;26.10;36.00
42421;DHT22;28063;48.140;11.588;2023-06-14T14:51:52;26.20;36.10
42421;DHT22;28063;48.140;11.588;2023-06-14T14:54:20;26.20;36.30
42421;DHT22;28063;48.140;11.588;2023-06-14T14:56:51;26.20;36.50
42421;DHT22;28063;48.140;11.588;2023-06-14T14:59:17;26.20;36.10
42421;DHT22;28063;48.140;11.588;2023-06-14T15:01:44;26.20;36.70
42421;DHT22;28063;48.140;11.588;2023-06-14T15:04:22;26.00;36.80
42421;DHT22;28063;48.140;11.588;2023-06-14T15:06:51;25.60;36.80
42421;DHT22;28063;48.140;11.588;2023-06-14T15:11:54;24.60;38.20
42421;DHT22;28063;48.140;11.588;2023-06-14T15:14:25;24.30;38.60
42421;DHT22;28063;48.140;11.588;2023-06-14T15:16:53;23.90;39.80
42421;DHT22;28063;48.140;11.588;2023-06-14T15:19:19;23.70;39.20
42421;DHT22;28063;48.140;11.588;2023-06-14T15:24:14;24.20;38.20
42421;DHT22;28063;48.140;11.588;2023-06-14T15:26:45;24.50;38.40
42421;DHT22;28063;48.140;11.588;2023-06-14T15:29:21;24.60;38.20
42421;DHT22;28063;48.140;11.588;2023-06-14T15:31:52;24.80;38.00
42421;DHT22;28063;48.140;11.588;2023-06-14T15:34:21;24.80;38.00
42421;DHT22;28063;48.140;11.588;2023-06-14T15:36:49;24.80;38.80
42421;DHT22;28063;48.140;11.588;2023-06-14T15:39:22;24.90;38.80
42421;DHT22;28063;48.140;11.588;2023-06-14T15:41:50;25.10;38.70
42421;DHT22;28063;48.140;11.588;2023-06-14T15:44:17;25.10;38.00
42421;DHT22;28063;48.140;11.588;2023-06-14T15:46:46;25.10;38.40
42421;DHT22;28063;48.140;11.588;2023-06-14T15:49:17;25.10;38.00
42421;DHT22;28063;48.140;11.588;2023-06-14T15:51:47;24.90;38.70
42421;DHT22;28063;48.140;11.588;2023-06-14T15:54:16;24.80;39.10
42421;DHT22;28063;48.140;11.588;2023-06-14T15:56:44;24.90;39.60
42421;DHT22;28063;48.140;11.588;2023-06-14T15:59:10;24.90;39.60
42421;DHT22;28063;48.140;11.588;2023-06-14T16:01:44;24.80;39.80
42421;DHT22;28063;48.140;11.588;2023-06-14T16:04:16;24.60;39.50
42421;DHT22;28063;48.140;11.588;2023-06-14T16:06:49;24.60;39.90
42421;DHT22;28063;48.140;11.588;2023-06-14T16:09:15;24.50;40.20
42421;DHT22;28063;48.140;11.588;2023-06-14T16:11:44;24.40;40.20
42421;DHT22;28063;48.140;11.588;2023-06-14T16:14:12;24.50;40.50
42421;DHT22;28063;48.140;11.588;2023-06-14T16:16:42;24.50;40.30
42421;DHT22;28063;48.140;11.588;2023-06-14T16:19:12;24.30;40.20
42421;DHT22;28063;48.140;11.588;2023-06-14T16:21:40;24.00;40.70
42421;DHT22;28063;48.140;11.588;2023-06-14T16:24:09;23.90;41.20
42421;DHT22;28063;48.140;11.588;2023-06-14T16:26:35;23.80;41.50
42421;DHT22;28063;48.140;11.588;2023-06-14T16:29:01;23.70;41.70
42421;DHT22;28063;48.140;11.588;2023-06-14T16:31:27;23.70;41.70
42421;DHT22;28063;48.140;11.588;2023-06-14T16:33:53;23.70;41.40
42421;DHT22;28063;48.140;11.588;2023-06-14T16:36:26;23.70;41.80
42421;DHT22;28063;48.140;11.588;2023-06-14T16:38:56;23.80;41.40
42421;DHT22;28063;48.140;11.588;2023-06-14T16:41:23;24.10;40.90
42421;DHT22;28063;48.140;11.588;2023-06-14T16:43:52;24.40;40.80
42421;DHT22;28063;48.140;11.588;2023-06-14T16:46:27;24.80;40.60
42421;DHT22;28063;48.140;11.588;2023-06-14T16:48:57;25.20;40.30
42421;DHT22;28063;48.140;11.588;2023-06-14T16:51:23;25.50;39.60
42421;DHT22;28063;48.140;11.588;2023-06-14T16:53:52;26.00;39.30
42421;DHT22;28063;48.140;11.588;2023-06-14T16:56:24;26.70;39.00
42421;DHT22;28063;48.140;11.588;2023-06-14T16:58:58;27.30;38.10
42421;DHT22;28063;48.140;11.588;2023-06-14T17:01:24;27.70;37.00